createdAt,value
2022-10-12T00:00:59.858Z,21.55
2022-10-12T00:03:28.299Z,22.52
2022-10-12T00:06:09.275Z,22.42
2022-10-12T00:08:39.135Z,21.20
2022-10-12T00:11:08.426Z,22.60
2022-10-12T00:13:36.721Z,20.98
2022-10-12T00:16:06.274Z,21.35
2022-10-12T00:18:35.528Z,21.63
2022-10-12T00:21:07.272Z,21.05
2022-10-12T00:23:36.731Z,21.55
2022-10-12T00:26:06.852Z,20.83
2022-10-12T00:28:36.081Z,20.60
2022-10-12T00:31:08.760Z,20.50
2022-10-12T00:33:38.606Z,21.73
2022-10-12T00:36:16.719Z,20.95
2022-10-12T00:38:45.579Z,20.80
2022-10-12T00:41:14.882Z,22.33
2022-10-12T00:43:45.615Z,21.45
2022-10-12T00:46:18.062Z,20.58
2022-10-12T00:48:47.836Z,21.17
2022-10-12T00:51:20.349Z,20.88
2022-10-12T00:53:56.268Z,22.13
2022-10-12T00:56:28.035Z,20.50
2022-10-12T00:58:57.427Z,20.98
2022-10-12T01:01:25.830Z,21.00
2022-10-12T01:03:54.181Z,19.52
2022-10-12T01:06:23.769Z,18.83
2022-10-12T01:08:52.327Z,19.95
2022-10-12T01:11:20.455Z,18.70
2022-10-12T01:13:48.568Z,19.33
2022-10-12T01:16:23.472Z,19.48
2022-10-12T01:18:58.844Z,19.08
2022-10-12T01:21:28.807Z,20.63
2022-10-12T01:24:36.735Z,19.25
2022-10-12T01:27:19.159Z,19.63
2022-10-12T01:30:18.278Z,19.58
2022-10-12T01:33:08.467Z,20.58
2022-10-12T01:35:43.087Z,19.15
2022-10-12T01:38:25.285Z,20.70
2022-10-12T01:41:00.823Z,21.35
2022-10-12T01:43:35.466Z,19.52
2022-10-12T01:46:45.126Z,19.45
2022-10-12T01:49:16.004Z,19.88
2022-10-12T01:52:04.732Z,20.92
2022-10-12T01:54:44.952Z,21.52
2022-10-12T01:57:20.241Z,20.63
2022-10-12T01:59:58.523Z,20.88
2022-10-12T02:02:35.949Z,20.40
2022-10-12T02:05:08.041Z,20.77
2022-10-12T02:07:42.536Z,21.48
2022-10-12T02:10:16.940Z,21.33
2022-10-12T02:12:46.456Z,21.40
2022-10-12T02:15:15.857Z,21.77
2022-10-12T02:17:49.183Z,21.90
2022-10-12T02:20:19.460Z,20.30
2022-10-12T02:22:51.581Z,21.20
2022-10-12T02:25:23.515Z,21.02
2022-10-12T02:27:57.487Z,20.98
2022-10-12T02:30:26.321Z,21.15
2022-10-12T02:33:00.780Z,21.90
2022-10-12T02:35:33.686Z,21.30
2022-10-12T02:38:06.026Z,20.45
2022-10-12T02:40:38.368Z,21.73
2022-10-12T02:43:12.949Z,21.80
2022-10-12T02:45:43.978Z,22.25
2022-10-12T02:48:17.367Z,20.38
2022-10-12T02:50:47.606Z,21.10
2022-10-12T02:53:16.199Z,21.58
2022-10-12T02:55:50.044Z,20.27
2022-10-12T02:58:18.805Z,22.23
2022-10-12T03:00:47.235Z,21.48
2022-10-12T03:03:16.797Z,21.42
2022-10-12T03:05:45.125Z,22.45
2022-10-12T03:08:13.537Z,20.35
2022-10-12T03:10:41.649Z,21.25
2022-10-12T03:13:09.800Z,20.80
2022-10-12T03:15:38.015Z,20.75
2022-10-12T03:18:06.330Z,22.08
2022-10-12T03:20:35.853Z,22.10
2022-10-12T03:23:04.424Z,22.20
2022-10-12T03:25:33.325Z,21.15
2022-10-12T03:28:01.623Z,21.50
2022-10-12T03:30:29.825Z,19.63
2022-10-12T03:32:57.994Z,22.08
2022-10-12T03:35:26.166Z,21.17
2022-10-12T03:37:55.792Z,21.65
2022-10-12T03:40:24.050Z,22.95
2022-10-12T03:42:52.179Z,21.42
2022-10-12T03:45:20.331Z,19.65
2022-10-12T03:47:48.730Z,20.98
2022-10-12T03:50:16.990Z,20.52
2022-10-12T03:52:45.126Z,22.77
2022-10-12T03:55:14.675Z,20.95
2022-10-12T03:57:42.873Z,21.70
2022-10-12T04:00:12.496Z,20.52
2022-10-12T04:02:40.711Z,21.17
2022-10-12T04:05:09.533Z,19.15
2022-10-12T04:07:38.461Z,21.08
2022-10-12T04:10:08.341Z,21.50
2022-10-12T04:12:37.897Z,21.10
2022-10-12T04:15:07.343Z,21.88
2022-10-12T04:17:35.696Z,22.20
2022-10-12T04:20:04.019Z,21.70
2022-10-12T04:22:32.349Z,20.17
2022-10-12T04:25:00.536Z,21.30
2022-10-12T04:27:28.907Z,22.00
2022-10-12T04:29:58.547Z,21.75
2022-10-12T04:32:27.156Z,21.92
2022-10-12T04:34:55.284Z,21.35
2022-10-12T04:37:23.522Z,21.50
2022-10-12T04:39:51.699Z,22.70
2022-10-12T04:42:19.839Z,21.15
2022-10-12T04:44:48.108Z,22.10
2022-10-12T04:47:17.714Z,22.77
2022-10-12T04:49:45.943Z,21.48
2022-10-12T04:52:14.162Z,21.05
2022-10-12T04:54:42.335Z,20.48
2022-10-12T04:57:10.607Z,21.90
2022-10-12T04:59:38.819Z,21.55
2022-10-12T05:02:07.009Z,23.50
2022-10-12T05:04:36.590Z,21.48
2022-10-12T05:07:04.931Z,21.67
2022-10-12T05:09:33.102Z,20.60
2022-10-12T05:12:01.247Z,22.88
2022-10-12T05:14:33.599Z,23.05
2022-10-12T05:17:04.464Z,22.75
2022-10-12T05:19:32.696Z,21.80
2022-10-12T05:22:02.526Z,22.38
2022-10-12T05:24:30.756Z,21.67
2022-10-12T05:26:58.910Z,22.02
2022-10-12T05:29:27.098Z,22.20
2022-10-12T05:31:55.416Z,21.73
2022-10-12T05:34:24.678Z,21.80
2022-10-12T05:36:52.874Z,21.58
2022-10-12T05:39:22.483Z,21.08
2022-10-12T05:41:51.436Z,21.13
2022-10-12T05:44:19.551Z,21.55
2022-10-12T05:46:47.751Z,21.25
2022-10-12T05:49:15.903Z,20.42
2022-10-12T05:51:44.072Z,21.35
2022-10-12T05:54:12.270Z,20.02
2022-10-12T05:56:41.910Z,23.60
2022-10-12T05:59:10.122Z,20.58
2022-10-12T06:01:38.474Z,21.55
2022-10-12T06:04:06.774Z,20.95
2022-10-12T06:06:34.955Z,21.25
2022-10-12T06:09:03.400Z,20.80
2022-10-12T06:11:34.071Z,22.40
2022-10-12T06:14:06.081Z,21.30
2022-10-12T06:16:34.548Z,22.42
2022-10-12T06:19:02.730Z,21.02
2022-10-12T06:21:34.738Z,21.23
2022-10-12T06:24:03.301Z,22.88
2022-10-12T06:26:31.615Z,23.23
2022-10-12T06:29:00.929Z,22.27
2022-10-12T06:31:32.172Z,24.25
2022-10-12T06:34:00.492Z,24.40
2022-10-12T06:36:28.727Z,22.13
2022-10-12T06:38:56.860Z,24.73
2022-10-12T06:41:25.125Z,26.20
2022-10-12T06:43:53.430Z,25.42
2022-10-12T06:46:21.544Z,24.25
2022-10-12T06:48:51.127Z,25.73
2022-10-12T06:51:19.410Z,26.23
2022-10-12T06:53:47.531Z,27.20
2022-10-12T06:56:15.721Z,28.00
2022-10-12T06:58:43.955Z,26.55
2022-10-12T07:01:12.135Z,26.98
2022-10-12T07:03:40.330Z,29.13
2022-10-12T07:06:12.192Z,29.23
2022-10-12T07:08:42.121Z,28.58
2022-10-12T07:11:11.953Z,29.10
2022-10-12T07:13:40.220Z,31.88
2022-10-12T07:16:09.015Z,31.20
2022-10-12T07:18:37.237Z,36.72
2022-10-12T07:21:05.488Z,32.50
2022-10-12T07:23:40.179Z,28.27
2022-10-12T07:26:10.959Z,25.58
2022-10-12T07:28:39.271Z,27.65
2022-10-12T07:31:09.918Z,25.92
2022-10-12T07:33:39.747Z,25.75
2022-10-12T07:36:21.186Z,24.60
2022-10-12T07:38:51.543Z,23.27
2022-10-12T07:41:20.461Z,23.13
2022-10-12T07:43:48.638Z,21.85
2022-10-12T07:46:16.824Z,20.25
2022-10-12T07:48:50.004Z,19.83
2022-10-12T07:51:19.144Z,19.70
2022-10-12T07:53:47.436Z,20.33
2022-10-12T07:56:17.225Z,21.15
2022-10-12T07:58:50.117Z,18.85
2022-10-12T08:01:19.492Z,17.63
2022-10-12T08:03:47.776Z,19.38
2022-10-12T08:06:17.284Z,18.23
2022-10-12T08:08:45.924Z,18.77
2022-10-12T08:11:14.684Z,17.77
2022-10-12T08:13:44.309Z,17.13
2022-10-12T08:16:14.980Z,16.00
2022-10-12T08:18:43.382Z,14.60
2022-10-12T08:21:13.658Z,15.10
2022-10-12T08:23:44.486Z,13.75
2022-10-12T08:26:13.164Z,13.60
2022-10-12T08:28:41.376Z,13.93
2022-10-12T08:31:14.072Z,12.35
2022-10-12T08:33:42.330Z,13.48
2022-10-12T08:36:12.414Z,11.02
2022-10-12T08:38:43.410Z,9.82
2022-10-12T08:41:48.900Z,9.32
2022-10-12T08:44:52.361Z,10.02
2022-10-12T08:47:27.103Z,9.70
2022-10-12T08:49:55.681Z,10.20
2022-10-12T08:52:29.858Z,10.43
2022-10-12T08:55:03.383Z,8.75
2022-10-12T08:57:31.860Z,9.02
2022-10-12T09:00:01.619Z,8.63
2022-10-12T09:02:51.742Z,8.60
2022-10-12T09:05:27.990Z,8.52
2022-10-12T09:08:02.757Z,8.80
2022-10-12T09:10:44.104Z,7.70
2022-10-12T09:13:22.898Z,7.60
2022-10-12T09:15:58.298Z,6.38
2022-10-12T09:18:40.881Z,6.88
2022-10-12T09:21:12.595Z,6.38
2022-10-12T09:23:44.216Z,6.25
2022-10-12T09:26:17.241Z,5.63
2022-10-12T09:28:47.369Z,5.78
2022-10-12T09:31:44.471Z,5.20
2022-10-12T09:34:18.860Z,6.07
2022-10-12T09:36:47.683Z,5.45
2022-10-12T09:39:20.321Z,5.43
2022-10-12T09:41:50.020Z,5.95
2022-10-12T09:44:30.843Z,5.40
2022-10-12T09:47:01.398Z,5.93
2022-10-12T09:49:43.041Z,5.55
2022-10-12T09:52:12.305Z,5.90
2022-10-12T09:54:42.504Z,5.95
2022-10-12T09:57:11.064Z,4.50
2022-10-12T09:59:44.379Z,5.00
2022-10-12T10:02:16.656Z,4.43
2022-10-12T10:04:47.493Z,3.53
2022-10-12T10:07:23.265Z,3.70
2022-10-12T10:10:17.879Z,4.50
2022-10-12T10:12:51.513Z,4.15
2022-10-12T10:15:25.991Z,3.22
2022-10-12T10:17:56.688Z,3.50
2022-10-12T10:20:33.060Z,3.50
2022-10-12T10:23:03.343Z,3.53
2022-10-12T10:25:32.211Z,3.45
2022-10-12T10:28:30.131Z,3.65
2022-10-12T10:31:02.837Z,4.03
2022-10-12T10:33:32.258Z,3.85
2022-10-12T10:36:09.702Z,3.22
2022-10-12T10:38:55.460Z,3.42
2022-10-12T10:41:28.493Z,3.55
2022-10-12T10:43:56.850Z,3.40
2022-10-12T10:46:27.473Z,3.55
2022-10-12T10:48:59.174Z,3.65
2022-10-12T10:51:44.536Z,3.58
2022-10-12T10:54:18.008Z,3.05
2022-10-12T10:56:47.754Z,3.33
2022-10-12T10:59:28.751Z,4.15
2022-10-12T11:01:59.722Z,3.95
2022-10-12T11:04:30.825Z,3.95
2022-10-12T11:07:06.902Z,3.35
2022-10-12T11:09:42.474Z,3.97
2022-10-12T11:12:15.573Z,4.15
2022-10-12T11:14:46.781Z,3.80
2022-10-12T11:17:20.753Z,4.65
2022-10-12T11:19:53.968Z,3.65
2022-10-12T11:22:30.350Z,3.15
2022-10-12T11:25:09.088Z,3.85
2022-10-12T11:27:39.810Z,3.70
2022-10-12T11:30:15.074Z,4.07
2022-10-12T11:32:46.999Z,4.32
2022-10-12T11:35:18.282Z,3.88
2022-10-12T11:37:52.297Z,3.83
2022-10-12T11:40:47.696Z,4.65
2022-10-12T11:43:18.338Z,3.20
2022-10-12T11:45:49.507Z,3.80
2022-10-12T11:48:27.014Z,3.45
2022-10-12T11:51:03.840Z,3.53
2022-10-12T11:53:47.438Z,3.38
2022-10-12T11:56:21.627Z,2.88
2022-10-12T11:59:01.003Z,3.50
2022-10-12T12:01:43.195Z,3.83
2022-10-12T12:04:46.639Z,3.25
2022-10-12T12:07:47.407Z,3.35
2022-10-12T12:11:04.516Z,3.85
2022-10-12T12:13:34.115Z,3.13
2022-10-12T12:16:34.070Z,3.15
2022-10-12T12:19:34.440Z,3.47
2022-10-12T12:22:24.546Z,3.25
2022-10-12T12:25:04.251Z,3.60
2022-10-12T12:27:36.479Z,3.70
2022-10-12T12:30:24.493Z,4.30
2022-10-12T12:32:55.377Z,3.08
2022-10-12T12:35:27.943Z,3.40
2022-10-12T12:38:17.537Z,3.35
2022-10-12T12:41:01.508Z,3.50
2022-10-12T12:43:56.280Z,3.15
2022-10-12T12:46:47.979Z,3.13
2022-10-12T12:49:29.815Z,2.72
2022-10-12T12:51:59.900Z,3.08
2022-10-12T12:54:29.083Z,3.55
2022-10-12T12:57:29.928Z,3.67
2022-10-12T13:00:25.838Z,3.63
2022-10-12T13:03:42.128Z,3.65
2022-10-12T13:06:46.686Z,3.65
2022-10-12T13:09:30.893Z,3.47
2022-10-12T13:12:27.668Z,4.32
2022-10-12T13:15:17.126Z,3.70
2022-10-12T13:18:05.082Z,4.28
2022-10-12T13:20:35.674Z,4.20
2022-10-12T13:23:09.925Z,3.45
2022-10-12T13:25:43.121Z,3.08
2022-10-12T13:28:16.260Z,3.22
2022-10-12T13:30:52.389Z,3.33
2022-10-12T13:33:32.093Z,3.25
2022-10-12T13:36:05.640Z,2.97
2022-10-12T13:38:38.554Z,3.67
2022-10-12T13:41:10.891Z,3.45
2022-10-12T13:43:45.941Z,2.97
2022-10-12T13:46:16.327Z,3.10
2022-10-12T13:49:05.480Z,3.75
2022-10-12T13:51:35.086Z,5.25
2022-10-12T13:54:19.396Z,6.35
2022-10-12T13:56:49.032Z,4.30
2022-10-12T13:59:20.624Z,3.25
2022-10-12T14:01:54.928Z,4.80
2022-10-12T14:04:24.046Z,5.03
2022-10-12T14:07:00.464Z,4.30
2022-10-12T14:09:37.382Z,4.70
2022-10-12T14:12:06.144Z,5.20
2022-10-12T14:14:37.198Z,5.40
2022-10-12T14:17:05.888Z,5.78
2022-10-12T14:19:36.977Z,6.13
2022-10-12T14:22:05.488Z,6.53
2022-10-12T14:24:37.132Z,5.72
2022-10-12T14:27:07.115Z,5.60
2022-10-12T14:29:41.445Z,5.72
2022-10-12T14:32:38.519Z,5.25
2022-10-12T14:35:13.829Z,5.45
2022-10-12T14:37:42.040Z,9.13
2022-10-12T14:40:38.472Z,5.95
2022-10-12T14:43:20.955Z,4.93
2022-10-12T14:45:49.416Z,4.88
2022-10-12T14:48:20.465Z,5.75
2022-10-12T14:50:48.701Z,4.75
2022-10-12T14:53:17.206Z,5.65
2022-10-12T14:55:48.571Z,5.15
2022-10-12T14:58:19.158Z,5.25
2022-10-12T15:00:47.455Z,5.28
2022-10-12T15:03:17.987Z,4.57
2022-10-12T15:05:46.250Z,4.22
2022-10-12T15:08:14.348Z,4.30
2022-10-12T15:10:42.536Z,4.88
2022-10-12T15:13:15.298Z,5.25
2022-10-12T15:15:46.511Z,5.25
2022-10-12T15:18:14.853Z,5.13
2022-10-12T15:20:46.912Z,4.68
2022-10-12T15:23:17.291Z,4.38
2022-10-12T15:25:48.875Z,4.38
2022-10-12T15:28:18.814Z,4.85
2022-10-12T15:31:12.150Z,4.57
2022-10-12T15:33:35.466Z,4.35
2022-10-12T15:36:03.660Z,4.82
2022-10-12T15:38:31.911Z,4.75
2022-10-12T15:41:00.161Z,4.97
2022-10-12T15:43:30.155Z,4.63
2022-10-12T15:46:00.380Z,5.40
2022-10-12T15:48:29.424Z,4.55
2022-10-12T15:50:57.737Z,4.57
2022-10-12T15:53:27.315Z,4.93
2022-10-12T15:55:56.689Z,5.40
2022-10-12T15:58:24.833Z,4.68
2022-10-12T16:00:56.529Z,4.63
2022-10-12T16:03:27.986Z,4.97
2022-10-12T16:05:56.080Z,5.47
2022-10-12T16:08:24.749Z,4.47
2022-10-12T16:10:53.177Z,4.43
2022-10-12T16:13:21.438Z,4.40
2022-10-12T16:15:49.721Z,4.57
2022-10-12T16:18:19.903Z,5.15
2022-10-12T16:20:53.584Z,5.00
2022-10-12T16:23:24.219Z,4.38
2022-10-12T16:25:52.473Z,4.45
2022-10-12T16:28:20.660Z,4.50
2022-10-12T16:30:49.730Z,4.68
2022-10-12T16:33:19.710Z,4.38
2022-10-12T16:35:48.101Z,4.88
2022-10-12T16:38:16.324Z,4.60
2022-10-12T16:40:44.547Z,4.75
2022-10-12T16:43:12.827Z,4.80
2022-10-12T16:45:41.086Z,5.47
2022-10-12T16:48:09.397Z,5.05
2022-10-12T16:50:40.938Z,4.93
2022-10-12T16:53:09.664Z,4.75
2022-10-12T16:55:40.916Z,5.10
2022-10-12T16:58:09.283Z,4.90
2022-10-12T17:00:37.741Z,5.35
2022-10-12T17:03:05.975Z,5.28
2022-10-12T17:05:34.613Z,5.47
2022-10-12T17:08:04.364Z,5.20
2022-10-12T17:10:32.699Z,5.28
2022-10-12T17:13:00.903Z,5.55
2022-10-12T17:15:29.253Z,24.60
2022-10-12T17:17:59.277Z,7.55
2022-10-12T17:20:27.462Z,5.88
2022-10-12T17:22:55.713Z,7.85
2022-10-12T17:25:25.338Z,6.47
2022-10-12T17:27:53.490Z,6.43
2022-10-12T17:30:21.741Z,6.25
2022-10-12T17:32:50.013Z,6.15
2022-10-12T17:35:18.455Z,6.78
2022-10-12T17:37:46.627Z,7.50
2022-10-12T17:40:14.841Z,6.57
2022-10-12T17:42:44.469Z,5.82
2022-10-12T17:45:12.702Z,5.95
2022-10-12T17:47:40.863Z,6.78
2022-10-12T17:50:09.897Z,7.72
2022-10-12T17:52:41.198Z,6.38
2022-10-12T17:55:24.355Z,6.60
2022-10-12T17:57:59.415Z,6.50
2022-10-12T18:00:27.969Z,5.80
2022-10-12T18:02:56.297Z,6.60
2022-10-12T18:05:24.519Z,5.78
2022-10-12T18:07:52.705Z,5.88
2022-10-12T18:10:23.496Z,5.93
2022-10-12T18:12:54.228Z,6.28
2022-10-12T18:15:23.928Z,6.22
2022-10-12T18:17:52.131Z,6.18
2022-10-12T18:20:20.338Z,6.45
2022-10-12T18:22:48.573Z,6.60
2022-10-12T18:25:17.161Z,6.47
2022-10-12T18:27:46.873Z,6.43
2022-10-12T18:30:15.270Z,6.55
2022-10-12T18:32:44.866Z,5.47
2022-10-12T18:35:13.060Z,6.32
2022-10-12T18:37:41.297Z,6.68
2022-10-12T18:40:11.144Z,5.88
2022-10-12T18:42:39.410Z,6.75
2022-10-12T18:45:08.179Z,6.55
2022-10-12T18:47:36.724Z,5.57
2022-10-12T18:50:07.714Z,6.00
2022-10-12T18:52:36.049Z,6.13
2022-10-12T18:55:04.302Z,6.93
2022-10-12T18:57:36.428Z,5.85
2022-10-12T19:00:09.931Z,7.13
2022-10-12T19:02:38.317Z,8.30
2022-10-12T19:05:08.461Z,10.43
2022-10-12T19:07:36.910Z,15.55
2022-10-12T19:10:07.126Z,18.08
2022-10-12T19:12:35.530Z,19.83
2022-10-12T19:15:04.068Z,20.73
2022-10-12T19:17:33.176Z,20.17
2022-10-12T19:20:03.352Z,23.02
2022-10-12T19:22:32.994Z,22.10
2022-10-12T19:25:01.172Z,23.35
2022-10-12T19:27:29.531Z,22.77
2022-10-12T19:29:57.906Z,21.42
2022-10-12T19:32:26.138Z,18.27
2022-10-12T19:34:54.442Z,16.27
2022-10-12T19:37:23.079Z,15.90
2022-10-12T19:39:52.669Z,14.65
2022-10-12T19:42:21.210Z,14.10
2022-10-12T19:44:49.628Z,12.77
2022-10-12T19:47:17.860Z,11.30
2022-10-12T19:49:46.289Z,11.77
2022-10-12T19:52:14.524Z,11.00
2022-10-12T19:54:42.730Z,11.40
2022-10-12T19:57:12.384Z,11.27
2022-10-12T19:59:40.720Z,11.63
2022-10-12T20:02:10.257Z,11.52
2022-10-12T20:04:38.482Z,11.30
2022-10-12T20:07:06.762Z,11.55
2022-10-12T20:09:34.943Z,12.25
2022-10-12T20:12:03.129Z,13.10
2022-10-12T20:14:33.840Z,12.38
2022-10-12T20:17:02.105Z,11.60
2022-10-12T20:19:30.359Z,12.50
2022-10-12T20:21:58.487Z,12.32
2022-10-12T20:24:26.754Z,11.43
2022-10-12T20:26:54.880Z,12.05
2022-10-12T20:29:23.054Z,12.07
2022-10-12T20:31:52.655Z,11.98
2022-10-12T20:34:21.054Z,12.18
2022-10-12T20:36:51.622Z,12.23
2022-10-12T20:39:20.264Z,12.45
2022-10-12T20:41:48.427Z,11.85
2022-10-12T20:44:16.590Z,13.13
2022-10-12T20:46:57.619Z,12.93
2022-10-12T20:49:25.779Z,12.75
2022-10-12T20:51:54.255Z,14.18
2022-10-12T20:54:23.280Z,13.07
2022-10-12T20:56:52.065Z,13.63
2022-10-12T20:59:20.857Z,13.48
2022-10-12T21:01:49.213Z,14.68
2022-10-12T21:04:18.963Z,18.27
2022-10-12T21:06:47.258Z,20.73
2022-10-12T21:09:15.946Z,19.88
2022-10-12T21:11:44.657Z,18.98
2022-10-12T21:14:13.712Z,18.23
2022-10-12T21:16:42.287Z,17.85
2022-10-12T21:19:15.219Z,20.48
2022-10-12T21:21:46.545Z,22.83
2022-10-12T21:24:17.424Z,25.58
2022-10-12T21:26:46.182Z,28.95
2022-10-12T21:29:14.755Z,26.98
2022-10-12T21:31:42.947Z,26.58
2022-10-12T21:34:11.509Z,27.25
2022-10-12T21:36:40.171Z,25.20
2022-10-12T21:39:12.936Z,25.27
2022-10-12T21:41:41.782Z,25.30
2022-10-12T21:44:10.880Z,24.40
2022-10-12T21:46:39.028Z,24.50
2022-10-12T21:49:08.321Z,23.60
2022-10-12T21:51:37.798Z,22.90
2022-10-12T21:54:07.031Z,20.30
2022-10-12T21:56:37.868Z,20.70
2022-10-12T21:59:07.101Z,19.27
2022-10-12T22:01:36.804Z,18.27
2022-10-12T22:04:07.288Z,18.90
2022-10-12T22:06:35.862Z,17.75
2022-10-12T22:09:07.208Z,18.75
2022-10-12T22:11:38.241Z,18.85
2022-10-12T22:14:12.315Z,17.35
2022-10-12T22:16:40.640Z,17.90
2022-10-12T22:19:14.240Z,17.88
2022-10-12T22:21:42.867Z,16.70
2022-10-12T22:24:11.054Z,16.00
2022-10-12T22:26:40.930Z,17.30
2022-10-12T22:29:10.506Z,16.48
2022-10-12T22:31:40.320Z,14.85
2022-10-12T22:34:11.718Z,14.98
2022-10-12T22:36:40.155Z,14.70
2022-10-12T22:39:09.590Z,14.98
2022-10-12T22:41:37.812Z,13.52
2022-10-12T22:44:07.677Z,15.15
2022-10-12T22:46:35.927Z,15.02
2022-10-12T22:49:04.288Z,13.45
2022-10-12T22:51:34.581Z,13.88
2022-10-12T22:54:03.354Z,13.77
2022-10-12T22:56:32.215Z,13.55
2022-10-12T22:59:02.655Z,14.43
2022-10-12T23:01:32.149Z,14.15
2022-10-12T23:04:00.516Z,14.60
2022-10-12T23:06:28.656Z,14.15
2022-10-12T23:08:56.859Z,14.52
2022-10-12T23:11:26.873Z,15.32
2022-10-12T23:13:56.059Z,15.50
2022-10-12T23:16:25.796Z,16.23
2022-10-12T23:19:00.156Z,14.68
2022-10-12T23:21:29.489Z,15.95
2022-10-12T23:23:59.113Z,16.83
2022-10-12T23:26:28.579Z,15.82
2022-10-12T23:28:57.962Z,14.70
2022-10-12T23:31:28.857Z,15.05
2022-10-12T23:34:01.228Z,15.73
2022-10-12T23:36:29.837Z,15.75
2022-10-12T23:39:00.725Z,16.48
2022-10-12T23:41:28.892Z,15.75
2022-10-12T23:43:57.037Z,16.02
2022-10-12T23:46:25.307Z,17.17
2022-10-12T23:48:55.311Z,17.40
2022-10-12T23:51:24.948Z,17.83
2022-10-12T23:53:53.078Z,17.75
2022-10-12T23:56:21.339Z,17.83
2022-10-12T23:58:49.500Z,18.00
